createdAt,value
2019-03-24T00:00:37.030Z,3.94
2019-03-24T00:01:41.533Z,3.88
2019-03-24T00:02:36.988Z,3.78
2019-03-24T00:03:37.019Z,3.72
2019-03-24T00:04:36.954Z,3.65
2019-03-24T00:05:36.953Z,3.60
2019-03-24T00:06:36.935Z,3.67
2019-03-24T00:07:36.923Z,3.60
2019-03-24T00:08:36.927Z,3.53
2019-03-24T00:09:36.931Z,3.61
2019-03-24T00:10:36.886Z,3.64
2019-03-24T00:11:36.878Z,3.61
2019-03-24T00:12:36.866Z,3.62
2019-03-24T00:13:36.864Z,3.62
2019-03-24T00:14:36.860Z,3.61
2019-03-24T00:15:36.832Z,3.64
2019-03-24T00:16:36.824Z,3.47
2019-03-24T00:17:36.814Z,3.50
2019-03-24T00:18:36.796Z,3.49
2019-03-24T00:19:36.800Z,3.43
2019-03-24T00:20:36.775Z,3.39
2019-03-24T00:21:36.762Z,3.49
2019-03-24T00:22:36.772Z,3.50
2019-03-24T00:23:36.748Z,3.52
2019-03-24T00:24:36.768Z,3.43
2019-03-24T00:25:36.723Z,3.39
2019-03-24T00:26:36.707Z,3.36
2019-03-24T00:27:36.699Z,3.16
2019-03-24T00:28:36.694Z,3.16
2019-03-24T00:29:36.685Z,3.00
2019-03-24T00:30:36.707Z,2.98
2019-03-24T00:31:36.654Z,2.91
2019-03-24T00:32:36.663Z,2.84
2019-03-24T00:33:36.636Z,2.82
2019-03-24T00:34:36.621Z,2.77
2019-03-24T00:35:36.624Z,2.70
2019-03-24T00:36:36.637Z,2.61
2019-03-24T00:37:36.586Z,2.63
2019-03-24T00:38:36.581Z,2.56
2019-03-24T00:39:36.583Z,2.45
2019-03-24T00:40:36.574Z,2.34
2019-03-24T00:41:36.543Z,2.40
2019-03-24T00:42:36.543Z,2.35
2019-03-24T00:43:36.522Z,2.35
2019-03-24T00:44:36.522Z,2.38
2019-03-24T00:45:37.279Z,2.31
2019-03-24T00:46:36.496Z,2.28
2019-03-24T00:47:36.491Z,2.33
2019-03-24T00:48:36.467Z,2.23
2019-03-24T00:49:36.460Z,2.16
2019-03-24T00:50:36.458Z,2.28
2019-03-24T00:51:36.450Z,2.26
2019-03-24T00:52:36.459Z,2.10
2019-03-24T00:53:36.411Z,2.13
2019-03-24T00:54:36.416Z,2.06
2019-03-24T00:55:36.396Z,2.20
2019-03-24T00:56:36.391Z,2.12
2019-03-24T00:57:37.595Z,2.13
2019-03-24T00:58:36.367Z,2.10
2019-03-24T00:59:36.393Z,2.09
2019-03-24T01:00:36.371Z,2.17
2019-03-24T01:01:36.320Z,2.08
2019-03-24T01:02:36.310Z,2.06
2019-03-24T01:03:36.301Z,2.23
2019-03-24T01:04:36.299Z,2.19
2019-03-24T01:05:36.295Z,2.26
2019-03-24T01:06:36.271Z,2.27
2019-03-24T01:07:36.258Z,2.35
2019-03-24T01:08:36.254Z,2.48
2019-03-24T01:09:36.237Z,2.52
2019-03-24T01:10:36.241Z,2.45
2019-03-24T01:11:36.218Z,2.53
2019-03-24T01:12:36.200Z,2.66
2019-03-24T01:13:36.189Z,2.61
2019-03-24T01:14:36.181Z,2.61
2019-03-24T01:15:47.159Z,2.53
2019-03-24T01:16:37.185Z,2.51
2019-03-24T01:17:36.155Z,2.41
2019-03-24T01:18:36.135Z,2.46
2019-03-24T01:19:36.127Z,2.35
2019-03-24T01:20:36.144Z,2.37
2019-03-24T01:21:36.106Z,2.38
2019-03-24T01:22:36.088Z,2.26
2019-03-24T01:23:36.082Z,2.22
2019-03-24T01:24:36.066Z,2.19
2019-03-24T01:25:36.056Z,2.31
2019-03-24T01:26:36.066Z,2.16
2019-03-24T01:27:36.050Z,2.09
2019-03-24T01:28:36.037Z,2.08
2019-03-24T01:29:36.022Z,2.06
2019-03-24T01:30:35.998Z,1.98
2019-03-24T01:31:36.008Z,1.82
2019-03-24T01:32:35.983Z,1.78
2019-03-24T01:33:35.968Z,1.69
2019-03-24T01:34:35.958Z,1.58
2019-03-24T01:35:35.957Z,1.71
2019-03-24T01:36:35.933Z,1.69
2019-03-24T01:37:35.939Z,1.82
2019-03-24T01:38:35.917Z,1.65
2019-03-24T01:39:35.899Z,1.65
2019-03-24T01:40:35.890Z,1.62
2019-03-24T01:41:35.880Z,1.61
2019-03-24T01:42:35.883Z,1.50
2019-03-24T01:43:35.858Z,1.47
2019-03-24T01:44:35.850Z,1.28
2019-03-24T01:45:35.843Z,1.22
2019-03-24T01:46:35.822Z,1.18
2019-03-24T01:47:35.837Z,1.15
2019-03-24T01:48:35.800Z,1.24
2019-03-24T01:49:35.792Z,1.25
2019-03-24T01:50:35.778Z,1.18
2019-03-24T01:51:35.768Z,1.22
2019-03-24T01:52:35.774Z,1.25
2019-03-24T01:53:35.769Z,1.22
2019-03-24T01:54:35.740Z,1.16
2019-03-24T01:55:35.723Z,1.08
2019-03-24T01:56:35.716Z,0.96
2019-03-24T01:57:35.728Z,1.03
2019-03-24T01:58:35.716Z,0.90
2019-03-24T01:59:35.683Z,0.85
2019-03-24T02:00:35.672Z,0.75
2019-03-24T02:01:35.658Z,0.68
2019-03-24T02:02:35.646Z,0.72
2019-03-24T02:03:35.653Z,0.71
2019-03-24T02:04:35.656Z,0.61
2019-03-24T02:05:35.615Z,0.53
2019-03-24T02:06:35.603Z,0.60
2019-03-24T02:07:35.594Z,0.48
2019-03-24T02:08:35.579Z,0.49
2019-03-24T02:09:35.568Z,0.46
2019-03-24T02:10:35.587Z,0.43
2019-03-24T02:11:35.559Z,0.43
2019-03-24T02:12:35.535Z,0.58
2019-03-24T02:13:35.531Z,0.60
2019-03-24T02:14:35.515Z,0.57
2019-03-24T02:15:35.523Z,0.62
2019-03-24T02:16:35.518Z,0.60
2019-03-24T02:17:35.482Z,0.61
2019-03-24T02:18:35.471Z,0.53
2019-03-24T02:19:35.479Z,0.42
2019-03-24T02:20:35.472Z,0.48
2019-03-24T02:21:35.440Z,0.43
2019-03-24T02:22:35.440Z,0.28
2019-03-24T02:23:35.429Z,0.30
2019-03-24T02:24:35.410Z,0.25
2019-03-24T02:25:35.397Z,0.24
2019-03-24T02:26:35.384Z,0.25
2019-03-24T02:27:35.400Z,0.27
2019-03-24T02:28:35.360Z,0.33
2019-03-24T02:29:35.360Z,0.28
2019-03-24T02:30:35.351Z,0.34
2019-03-24T02:31:35.329Z,0.25
2019-03-24T02:32:35.363Z,0.18
2019-03-24T02:33:35.313Z,0.28
2019-03-24T02:34:35.294Z,0.28
2019-03-24T02:35:35.285Z,0.31
2019-03-24T02:36:35.287Z,0.24
2019-03-24T02:37:35.309Z,0.25
2019-03-24T02:38:35.268Z,0.25
2019-03-24T02:39:35.241Z,0.23
2019-03-24T02:40:35.235Z,0.16
2019-03-24T02:41:35.220Z,0.27
2019-03-24T02:42:35.233Z,0.25
2019-03-24T02:43:35.202Z,0.34
2019-03-24T02:44:35.190Z,0.34
2019-03-24T02:45:35.248Z,0.45
2019-03-24T02:46:35.167Z,0.49
2019-03-24T02:47:35.166Z,0.58
2019-03-24T02:48:35.157Z,0.61
2019-03-24T02:49:35.157Z,0.65
2019-03-24T02:50:35.125Z,0.46
2019-03-24T02:51:35.156Z,0.42
2019-03-24T02:52:35.121Z,0.36
2019-03-24T02:53:35.103Z,0.28
2019-03-24T02:54:35.083Z,0.36
2019-03-24T02:55:35.065Z,0.27
2019-03-24T02:56:35.050Z,0.18
2019-03-24T02:57:35.044Z,0.25
2019-03-24T02:58:35.044Z,0.36
2019-03-24T02:59:35.068Z,0.46
2019-03-24T03:00:35.009Z,0.52
2019-03-24T03:01:34.994Z,0.45
2019-03-24T03:02:34.999Z,0.45
2019-03-24T03:03:34.974Z,0.34
2019-03-24T03:04:34.969Z,0.43
2019-03-24T03:05:34.988Z,0.31
2019-03-24T03:06:34.962Z,0.39
2019-03-24T03:07:34.932Z,0.28
2019-03-24T03:08:34.921Z,0.31
2019-03-24T03:09:34.928Z,0.31
2019-03-24T03:10:34.972Z,0.23
2019-03-24T03:11:34.900Z,0.18
2019-03-24T03:12:34.878Z,0.10
2019-03-24T03:13:34.871Z,0.13
2019-03-24T03:14:34.882Z,0.03
2019-03-24T03:15:34.841Z,-0.04
2019-03-24T03:16:38.845Z,-0.13
2019-03-24T03:17:34.863Z,-0.23
2019-03-24T03:18:34.808Z,-0.26
2019-03-24T03:19:34.803Z,-0.33
2019-03-24T03:20:34.830Z,-0.27
2019-03-24T03:21:34.823Z,-0.26
2019-03-24T03:22:34.781Z,-0.24
2019-03-24T03:23:34.754Z,-0.23
2019-03-24T03:24:34.751Z,-0.27
2019-03-24T03:25:34.756Z,-0.26
2019-03-24T03:26:34.756Z,-0.26
2019-03-24T03:27:34.719Z,-0.18
2019-03-24T03:28:34.697Z,-0.15
2019-03-24T03:29:34.706Z,-0.11
2019-03-24T03:30:34.680Z,-0.11
2019-03-24T03:31:34.683Z,-0.12
2019-03-24T03:32:34.701Z,-0.24
2019-03-24T03:33:34.674Z,-0.27
2019-03-24T03:34:34.642Z,-0.33
2019-03-24T03:35:34.654Z,-0.39
2019-03-24T03:36:34.611Z,-0.45
2019-03-24T03:37:34.601Z,-0.65
2019-03-24T03:38:34.651Z,-0.60
2019-03-24T03:39:34.594Z,-0.59
2019-03-24T03:40:34.582Z,-0.59
2019-03-24T03:41:34.562Z,-0.59
2019-03-24T03:42:34.562Z,-0.65
2019-03-24T03:43:34.562Z,-0.62
2019-03-24T03:44:34.544Z,-0.81
2019-03-24T03:45:34.519Z,-0.92
2019-03-24T03:46:34.511Z,-0.87
2019-03-24T03:47:34.540Z,-0.80
2019-03-24T03:48:34.494Z,-0.73
2019-03-24T03:49:34.485Z,-0.66
2019-03-24T03:50:34.465Z,-0.86
2019-03-24T03:51:34.469Z,-0.77
2019-03-24T03:52:34.435Z,-0.73
2019-03-24T03:53:34.437Z,-0.77
2019-03-24T03:54:34.428Z,-0.60
2019-03-24T03:55:34.401Z,-0.68
2019-03-24T03:56:34.421Z,-0.52
2019-03-24T03:57:34.382Z,-0.47
2019-03-24T03:58:34.382Z,-0.42
2019-03-24T03:59:34.378Z,-0.39
2019-03-24T04:00:34.356Z,-0.36
2019-03-24T04:01:34.342Z,-0.48
2019-03-24T04:02:34.355Z,-0.50
2019-03-24T04:03:34.372Z,-0.50
2019-03-24T04:04:34.302Z,-0.60
2019-03-24T04:05:34.311Z,-0.62
2019-03-24T04:06:34.303Z,-0.65
2019-03-24T04:07:34.270Z,-0.62
2019-03-24T04:08:34.255Z,-0.50
2019-03-24T04:09:34.307Z,-0.44
2019-03-24T04:10:34.240Z,-0.48
2019-03-24T04:11:34.232Z,-0.45
2019-03-24T04:12:34.222Z,-0.60
2019-03-24T04:13:34.225Z,-0.65
2019-03-24T04:14:34.207Z,-0.66
2019-03-24T04:15:34.246Z,-0.80
2019-03-24T04:16:34.171Z,-0.84
2019-03-24T04:17:34.162Z,-0.66
2019-03-24T04:18:34.152Z,-0.70
2019-03-24T04:19:34.155Z,-0.70
2019-03-24T04:20:34.169Z,-0.73
2019-03-24T04:21:34.128Z,-0.73
2019-03-24T04:22:34.114Z,-0.75
2019-03-24T04:23:34.116Z,-0.78
2019-03-24T04:24:34.093Z,-0.87
2019-03-24T04:25:34.074Z,-1.00
2019-03-24T04:26:34.182Z,-1.06
2019-03-24T04:27:34.069Z,-1.02
2019-03-24T04:28:34.036Z,-1.05
2019-03-24T04:29:34.044Z,-0.99
2019-03-24T04:30:34.023Z,-0.91
2019-03-24T04:31:34.043Z,-0.68
2019-03-24T04:32:34.005Z,-0.65
2019-03-24T04:33:33.981Z,-0.65
2019-03-24T04:34:33.981Z,-0.63
2019-03-24T04:35:33.968Z,-0.70
2019-03-24T04:36:33.973Z,-0.78
2019-03-24T04:37:33.967Z,-0.84
2019-03-24T04:38:33.937Z,-0.91
2019-03-24T04:39:33.917Z,-0.84
2019-03-24T04:40:33.905Z,-0.91
2019-03-24T04:41:34.663Z,-0.95
2019-03-24T04:42:33.904Z,-0.86
2019-03-24T04:43:33.883Z,-0.89
2019-03-24T04:44:33.864Z,-0.86
2019-03-24T04:45:33.854Z,-0.91
2019-03-24T04:46:33.838Z,-0.84
2019-03-24T04:47:33.827Z,-0.84
2019-03-24T04:48:33.871Z,-0.87
2019-03-24T04:49:33.815Z,-0.86
2019-03-24T04:50:33.793Z,-0.92
2019-03-24T04:51:33.782Z,-0.77
2019-03-24T04:52:33.773Z,-0.72
2019-03-24T04:53:33.776Z,-0.72
2019-03-24T04:54:33.771Z,-0.72
2019-03-24T04:55:33.803Z,-0.72
2019-03-24T04:56:33.738Z,-0.77
2019-03-24T04:57:33.729Z,-0.77
2019-03-24T04:58:33.705Z,-0.78
2019-03-24T04:59:33.699Z,-0.80
2019-03-24T05:00:33.696Z,-0.86
2019-03-24T05:01:33.677Z,-0.81
2019-03-24T05:02:33.663Z,-0.89
2019-03-24T05:03:33.650Z,-0.86
2019-03-24T05:04:33.648Z,-0.80
2019-03-24T05:05:33.657Z,-0.66
2019-03-24T05:06:33.618Z,-0.65
2019-03-24T05:07:33.608Z,-0.57
2019-03-24T05:08:33.604Z,-0.45
2019-03-24T05:09:33.586Z,-0.47
2019-03-24T05:10:33.587Z,-0.45
2019-03-24T05:11:33.601Z,-0.41
2019-03-24T05:12:33.554Z,-0.42
2019-03-24T05:13:33.545Z,-0.37
2019-03-24T05:14:33.533Z,-0.37
2019-03-24T05:15:33.538Z,-0.47
2019-03-24T05:16:33.523Z,-0.33
2019-03-24T05:17:33.517Z,-0.36
2019-03-24T05:18:33.494Z,-0.31
2019-03-24T05:19:33.489Z,-0.27
2019-03-24T05:20:33.469Z,-0.18
2019-03-24T05:21:33.458Z,-0.22
2019-03-24T05:22:33.452Z,-0.23
2019-03-24T05:23:33.445Z,-0.19
2019-03-24T05:24:33.421Z,-0.08
2019-03-24T05:25:33.407Z,-0.15
2019-03-24T05:26:33.401Z,-0.05
2019-03-24T05:27:33.400Z,-0.06
2019-03-24T05:28:33.390Z,-0.04
2019-03-24T05:29:33.367Z,0.03
2019-03-24T05:30:33.368Z,-0.09
2019-03-24T05:31:33.346Z,0.05
2019-03-24T05:32:33.335Z,0.07
2019-03-24T05:33:33.383Z,-0.04
2019-03-24T05:34:33.319Z,0.05
2019-03-24T05:35:33.299Z,0.05
2019-03-24T05:36:33.294Z,0.03
2019-03-24T05:37:33.281Z,0.07
2019-03-24T05:38:33.269Z,0.07
2019-03-24T05:39:33.282Z,0.13
2019-03-24T05:40:33.272Z,0.13
2019-03-24T05:41:33.243Z,0.23
2019-03-24T05:42:33.234Z,0.27
2019-03-24T05:43:33.211Z,0.28
2019-03-24T05:44:33.210Z,0.33
2019-03-24T05:45:33.207Z,0.27
2019-03-24T05:46:33.177Z,0.33
2019-03-24T05:47:37.155Z,0.39
2019-03-24T05:48:33.162Z,0.34
2019-03-24T05:49:33.190Z,0.45
2019-03-24T05:50:33.151Z,0.41
2019-03-24T05:51:33.121Z,0.58
2019-03-24T05:52:33.115Z,0.60
2019-03-24T05:53:33.096Z,0.60
2019-03-24T05:54:33.116Z,0.68
2019-03-24T05:55:33.117Z,0.65
2019-03-24T05:56:33.082Z,0.71
2019-03-24T05:57:33.081Z,0.62
2019-03-24T05:58:33.043Z,0.70
2019-03-24T05:59:33.040Z,0.68
2019-03-24T06:00:33.040Z,0.83
2019-03-24T06:01:33.032Z,0.90
2019-03-24T06:02:33.007Z,0.94
2019-03-24T06:03:32.994Z,1.03
2019-03-24T06:04:32.997Z,1.07
2019-03-24T06:05:32.967Z,1.06
2019-03-24T06:06:32.969Z,1.08
2019-03-24T06:07:32.961Z,1.01
2019-03-24T06:08:32.938Z,0.98
2019-03-24T06:09:32.919Z,1.10
2019-03-24T06:10:32.920Z,1.03
2019-03-24T06:11:32.917Z,1.01
2019-03-24T06:12:32.909Z,1.03
2019-03-24T06:13:32.886Z,1.08
2019-03-24T06:14:32.876Z,1.14
2019-03-24T06:15:32.867Z,1.07
2019-03-24T06:16:32.846Z,1.16
2019-03-24T06:17:32.846Z,1.29
2019-03-24T06:18:32.838Z,1.25
2019-03-24T06:19:32.828Z,1.22
2019-03-24T06:20:32.805Z,1.32
2019-03-24T06:21:32.803Z,1.26
2019-03-24T06:22:32.797Z,1.43
2019-03-24T06:23:32.768Z,1.43
2019-03-24T06:24:32.758Z,1.51
2019-03-24T06:25:34.903Z,1.60
2019-03-24T06:26:32.749Z,1.68
2019-03-24T06:27:32.739Z,1.87
2019-03-24T06:28:32.723Z,2.06
2019-03-24T06:29:32.714Z,2.23
2019-03-24T06:30:32.700Z,2.31
2019-03-24T06:31:32.683Z,2.38
2019-03-24T06:32:32.712Z,2.48
2019-03-24T06:33:32.672Z,2.38
2019-03-24T06:34:32.649Z,2.49
2019-03-24T06:35:32.637Z,2.40
2019-03-24T06:36:32.636Z,2.37
2019-03-24T06:37:32.616Z,2.33
2019-03-24T06:38:32.619Z,2.27
2019-03-24T06:39:32.591Z,2.26
2019-03-24T06:40:32.584Z,2.13
2019-03-24T06:41:32.625Z,2.23
2019-03-24T06:42:32.554Z,1.98
2019-03-24T06:43:32.557Z,1.75
2019-03-24T06:44:32.556Z,1.76
2019-03-24T06:45:32.557Z,1.64
2019-03-24T06:46:32.520Z,1.65
2019-03-24T06:47:32.505Z,1.72
2019-03-24T06:48:32.492Z,1.75
2019-03-24T06:49:32.473Z,1.90
2019-03-24T06:50:32.470Z,2.04
2019-03-24T06:51:32.483Z,2.27
2019-03-24T06:52:32.441Z,2.37
2019-03-24T06:53:32.434Z,2.52
2019-03-24T06:54:32.464Z,2.71
2019-03-24T06:55:32.419Z,2.74
2019-03-24T06:56:32.400Z,2.81
2019-03-24T06:57:32.427Z,2.70
2019-03-24T06:58:32.390Z,2.76
2019-03-24T06:59:32.384Z,2.84
2019-03-24T07:00:32.354Z,2.97
2019-03-24T07:01:32.343Z,3.31
2019-03-24T07:02:32.370Z,3.50
2019-03-24T07:03:32.820Z,3.54
2019-03-24T07:04:32.314Z,3.65
2019-03-24T07:05:32.318Z,3.80
2019-03-24T07:06:34.649Z,3.82
2019-03-24T07:07:32.277Z,3.96
2019-03-24T07:08:32.270Z,3.83
2019-03-24T07:09:32.265Z,4.06
2019-03-24T07:10:32.269Z,3.94
2019-03-24T07:11:32.230Z,4.00
2019-03-24T07:12:32.223Z,4.19
2019-03-24T07:13:32.207Z,4.39
2019-03-24T07:14:32.227Z,4.50
2019-03-24T07:15:32.227Z,4.37
2019-03-24T07:16:32.185Z,4.21
2019-03-24T07:17:32.162Z,4.03
2019-03-24T07:18:32.153Z,3.67
2019-03-24T07:19:32.140Z,3.86
2019-03-24T07:20:32.128Z,3.89
2019-03-24T07:21:32.178Z,3.80
2019-03-24T07:22:32.116Z,4.01
2019-03-24T07:23:32.097Z,4.06
2019-03-24T07:24:32.095Z,4.04
2019-03-24T07:25:32.101Z,4.14
2019-03-24T07:26:32.074Z,4.21
2019-03-24T07:27:32.049Z,4.40
2019-03-24T07:28:32.048Z,4.44
2019-03-24T07:29:32.039Z,4.62
2019-03-24T07:30:32.029Z,4.95
2019-03-24T07:31:32.028Z,5.01
2019-03-24T07:32:31.993Z,5.07
2019-03-24T07:33:31.995Z,5.05
2019-03-24T07:34:31.988Z,5.10
2019-03-24T07:35:31.996Z,5.23
2019-03-24T07:36:31.951Z,4.96
2019-03-24T07:37:31.957Z,4.75
2019-03-24T07:38:31.948Z,4.24
2019-03-24T07:39:31.915Z,4.43
2019-03-24T07:40:31.904Z,4.50
2019-03-24T07:41:31.913Z,4.44
2019-03-24T07:42:31.915Z,4.61
2019-03-24T07:43:31.871Z,4.65
2019-03-24T07:44:31.897Z,4.70
2019-03-24T07:45:31.874Z,4.42
2019-03-24T07:46:31.841Z,4.04
2019-03-24T07:47:31.849Z,3.64
2019-03-24T07:48:31.828Z,3.27
2019-03-24T07:49:31.810Z,3.25
2019-03-24T07:50:31.792Z,3.06
2019-03-24T07:51:31.792Z,3.02
2019-03-24T07:52:31.770Z,2.94
2019-03-24T07:53:31.811Z,3.12
2019-03-24T07:57:09.708Z,3.28
2019-03-24T07:58:08.430Z,3.36
2019-03-24T07:59:08.415Z,3.53
2019-03-24T08:00:08.403Z,3.65
2019-03-24T08:01:08.384Z,4.00
2019-03-24T08:02:08.388Z,4.37
2019-03-24T08:03:08.399Z,4.76
2019-03-24T08:04:08.367Z,5.20
2019-03-24T08:05:08.339Z,5.77
2019-03-24T08:06:08.367Z,5.95
2019-03-24T08:07:08.318Z,6.01
2019-03-24T08:08:08.305Z,6.06
2019-03-24T08:09:08.329Z,5.66
2019-03-24T08:10:08.286Z,5.59
2019-03-24T08:11:08.292Z,5.53
2019-03-24T08:12:08.285Z,5.68
2019-03-24T08:13:08.248Z,5.92
2019-03-24T08:14:08.247Z,6.14
2019-03-24T08:15:08.239Z,7.29
2019-03-24T08:16:08.230Z,7.78
2019-03-24T08:17:08.204Z,7.71
2019-03-24T08:18:08.202Z,7.55
2019-03-24T08:19:08.189Z,7.63
2019-03-24T08:20:08.204Z,7.81
2019-03-24T08:21:08.167Z,7.96
2019-03-24T08:22:08.149Z,8.03
2019-03-24T08:23:08.140Z,7.69
2019-03-24T08:24:08.131Z,7.34
2019-03-24T08:25:08.117Z,7.16
2019-03-24T08:26:08.118Z,7.05
2019-03-24T08:27:08.103Z,6.87
2019-03-24T08:28:08.080Z,6.83
2019-03-24T08:29:08.098Z,7.13
2019-03-24T08:30:08.062Z,7.47
2019-03-24T08:31:08.067Z,6.99
2019-03-24T08:32:08.041Z,6.73
2019-03-24T08:33:08.051Z,7.02
2019-03-24T08:34:08.015Z,7.74
2019-03-24T08:35:08.003Z,8.40
2019-03-24T08:36:08.008Z,7.50
2019-03-24T08:37:07.989Z,6.71
2019-03-24T08:38:07.974Z,5.91
2019-03-24T08:39:08.737Z,5.56
2019-03-24T08:40:07.955Z,5.22
2019-03-24T08:41:07.938Z,5.40
2019-03-24T08:42:07.952Z,5.68
2019-03-24T08:43:07.911Z,5.95
2019-03-24T08:44:07.910Z,5.86
2019-03-24T08:45:07.904Z,6.29
2019-03-24T08:46:07.879Z,6.29
2019-03-24T08:47:07.912Z,6.13
2019-03-24T08:48:07.891Z,6.28
2019-03-24T08:49:07.848Z,6.68
2019-03-24T08:50:07.830Z,6.54
2019-03-24T08:51:07.836Z,7.01
2019-03-24T08:52:07.814Z,7.62
2019-03-24T08:53:07.839Z,7.66
2019-03-24T08:54:07.796Z,7.32
2019-03-24T08:55:07.780Z,7.20
2019-03-24T08:56:07.762Z,7.15
2019-03-24T08:57:07.757Z,6.80
2019-03-24T08:58:07.740Z,6.53
2019-03-24T08:59:07.751Z,6.62
2019-03-24T09:00:07.721Z,6.32
2019-03-24T09:01:07.719Z,5.96
2019-03-24T09:02:07.710Z,5.73
2019-03-24T09:03:07.684Z,5.73
2019-03-24T09:04:07.693Z,5.70
2019-03-24T09:05:07.676Z,5.73
2019-03-24T09:06:07.649Z,5.55
2019-03-24T09:07:07.638Z,6.03
2019-03-24T09:08:07.639Z,6.43
2019-03-24T09:09:07.618Z,6.90
2019-03-24T09:10:07.646Z,7.45
2019-03-24T09:11:07.593Z,7.92
2019-03-24T09:12:07.597Z,8.40
2019-03-24T09:13:07.574Z,8.83
2019-03-24T09:14:07.562Z,9.21
2019-03-24T09:15:07.578Z,9.06
2019-03-24T09:16:07.568Z,8.73
2019-03-24T09:17:07.525Z,9.05
2019-03-24T09:18:07.514Z,9.45
2019-03-24T09:19:07.559Z,9.76
2019-03-24T09:20:07.493Z,9.96
2019-03-24T09:21:07.504Z,10.04
2019-03-24T09:22:07.487Z,8.84
2019-03-24T09:23:07.474Z,8.10
2019-03-24T09:24:07.446Z,7.59
2019-03-24T09:25:07.462Z,7.34
2019-03-24T09:26:07.428Z,7.40
2019-03-24T09:27:07.441Z,7.47
2019-03-24T09:28:09.204Z,7.82
2019-03-24T09:29:07.407Z,7.96
2019-03-24T09:30:07.407Z,8.28
2019-03-24T09:31:07.369Z,8.51
2019-03-24T09:32:07.406Z,8.62
2019-03-24T09:33:07.346Z,8.93
2019-03-24T09:34:07.365Z,9.18
2019-03-24T09:35:07.338Z,9.21
2019-03-24T09:36:07.360Z,8.93
2019-03-24T09:37:07.373Z,8.21
2019-03-24T09:38:07.298Z,7.72
2019-03-24T09:39:07.317Z,7.90
2019-03-24T09:40:07.280Z,8.00
2019-03-24T09:41:07.285Z,8.14
2019-03-24T09:42:07.244Z,8.18
2019-03-24T09:43:07.260Z,8.37
2019-03-24T09:44:07.224Z,8.29
2019-03-24T09:45:07.231Z,8.17
2019-03-24T09:46:07.278Z,8.26
2019-03-24T09:47:07.198Z,8.40
2019-03-24T09:48:07.224Z,8.53
2019-03-24T09:49:07.181Z,8.65
2019-03-24T09:50:07.152Z,8.68
2019-03-24T09:51:07.145Z,8.65
2019-03-24T09:52:07.128Z,8.76
2019-03-24T09:53:07.155Z,8.88
2019-03-24T09:54:07.118Z,8.96
2019-03-24T09:55:07.106Z,8.99
2019-03-24T09:56:07.087Z,8.90
2019-03-24T09:57:07.076Z,8.73
2019-03-24T09:58:07.096Z,8.71
2019-03-24T09:59:07.101Z,8.81
2019-03-24T10:00:07.046Z,8.99
2019-03-24T10:01:07.026Z,8.88
2019-03-24T10:02:07.020Z,8.84
2019-03-24T10:03:07.008Z,8.90
2019-03-24T10:04:07.051Z,8.86
2019-03-24T10:05:07.018Z,8.65
2019-03-24T10:06:06.977Z,8.83
2019-03-24T10:07:06.974Z,8.88
2019-03-24T10:08:06.966Z,9.05
2019-03-24T10:09:06.939Z,9.28
2019-03-24T10:10:06.928Z,9.46
2019-03-24T10:11:06.938Z,9.58
2019-03-24T10:12:06.926Z,9.64
2019-03-24T10:13:06.901Z,9.85
2019-03-24T10:14:06.880Z,10.04
2019-03-24T10:15:06.877Z,9.91
2019-03-24T10:16:06.906Z,9.79
2019-03-24T10:17:06.847Z,10.00
2019-03-24T10:18:06.840Z,10.00
2019-03-24T10:19:13.924Z,10.06
2019-03-24T10:20:07.814Z,10.00
2019-03-24T10:21:06.819Z,10.06
2019-03-24T10:22:06.812Z,10.18
2019-03-24T10:23:06.782Z,10.36
2019-03-24T10:24:07.977Z,10.58
2019-03-24T10:25:06.760Z,10.46
2019-03-24T10:26:06.745Z,10.56
2019-03-24T10:27:06.782Z,10.68
2019-03-24T10:28:06.726Z,10.66
2019-03-24T10:29:06.740Z,10.65
2019-03-24T10:30:06.700Z,10.59
2019-03-24T10:31:06.689Z,10.40
2019-03-24T10:32:06.680Z,10.44
2019-03-24T10:33:06.691Z,10.19
2019-03-24T10:34:06.665Z,9.91
2019-03-24T10:35:06.712Z,9.76
2019-03-24T10:36:06.631Z,9.82
2019-03-24T10:37:06.637Z,9.93
2019-03-24T10:38:06.677Z,10.22
2019-03-24T10:39:06.613Z,10.55
2019-03-24T10:40:06.590Z,10.70
2019-03-24T10:41:06.579Z,10.60
2019-03-24T10:42:06.581Z,10.89
2019-03-24T10:43:06.556Z,11.14
2019-03-24T10:44:06.563Z,11.20
2019-03-24T10:45:06.534Z,11.29
2019-03-24T10:46:06.522Z,11.34
2019-03-24T10:47:06.561Z,11.32
2019-03-24T10:48:06.500Z,11.25
2019-03-24T10:49:06.488Z,11.62
2019-03-24T10:50:06.491Z,11.32
2019-03-24T10:51:06.480Z,11.52
2019-03-24T10:52:06.457Z,11.62
2019-03-24T10:53:06.456Z,11.70
2019-03-24T10:54:06.450Z,11.59
2019-03-24T10:55:06.423Z,11.94
2019-03-24T10:56:06.407Z,11.90
2019-03-24T10:57:06.412Z,12.09
2019-03-24T10:58:06.413Z,12.06
2019-03-24T10:59:06.401Z,12.24
2019-03-24T11:00:06.370Z,12.49
2019-03-24T11:01:06.375Z,12.56
2019-03-24T11:02:06.359Z,12.56
2019-03-24T11:03:06.363Z,12.63
2019-03-24T11:04:06.334Z,12.78
2019-03-24T11:05:06.326Z,12.75
2019-03-24T11:06:06.306Z,12.70
2019-03-24T11:07:06.298Z,12.31
2019-03-24T11:08:06.273Z,12.49
2019-03-24T11:09:06.287Z,12.63
2019-03-24T11:10:06.251Z,12.59
2019-03-24T11:11:06.271Z,12.66
2019-03-24T11:12:06.227Z,12.74
2019-03-24T11:13:06.220Z,12.95
2019-03-24T11:14:06.245Z,12.81
2019-03-24T11:15:06.241Z,12.67
2019-03-24T11:16:06.183Z,12.84
2019-03-24T11:17:06.211Z,12.99
2019-03-24T11:18:06.169Z,13.09
2019-03-24T11:19:06.181Z,13.30
2019-03-24T11:20:06.137Z,13.40
2019-03-24T11:21:06.133Z,13.56
2019-03-24T11:22:06.135Z,13.59
2019-03-24T11:23:06.146Z,12.95
2019-03-24T11:24:06.092Z,13.07
2019-03-24T11:25:06.087Z,13.24
2019-03-24T11:26:06.089Z,13.49
2019-03-24T11:27:06.071Z,13.30
2019-03-24T11:28:06.049Z,13.40
2019-03-24T11:29:06.044Z,12.92
2019-03-24T11:30:06.023Z,12.62
2019-03-24T11:31:06.018Z,12.15
2019-03-24T11:32:06.028Z,12.29
2019-03-24T11:33:06.005Z,12.56
2019-03-24T11:34:05.997Z,12.71
2019-03-24T11:35:05.971Z,12.81
2019-03-24T11:36:05.971Z,12.96
2019-03-24T11:37:05.960Z,13.06
2019-03-24T11:38:05.936Z,13.18
2019-03-24T11:39:05.927Z,13.04
2019-03-24T11:40:05.926Z,12.97
2019-03-24T11:41:05.900Z,12.63
2019-03-24T11:42:05.900Z,12.64
2019-03-24T11:43:05.919Z,12.67
2019-03-24T11:44:05.878Z,12.41
2019-03-24T11:45:05.872Z,12.13
2019-03-24T11:46:05.847Z,11.93
2019-03-24T11:47:05.836Z,11.94
2019-03-24T11:48:05.820Z,11.89
2019-03-24T11:49:05.813Z,12.08
2019-03-24T11:50:05.834Z,12.15
2019-03-24T11:51:05.790Z,12.29
2019-03-24T11:52:05.779Z,12.08
2019-03-24T11:53:05.782Z,11.70
2019-03-24T11:54:05.762Z,11.52
2019-03-24T11:55:05.748Z,11.64
2019-03-24T11:56:05.772Z,11.47
2019-03-24T11:57:05.739Z,11.25
2019-03-24T11:58:06.388Z,11.21
2019-03-24T11:59:05.699Z,11.41
2019-03-24T12:00:05.693Z,11.59
2019-03-24T12:01:05.710Z,11.99
2019-03-24T12:02:05.691Z,12.12
2019-03-24T12:03:05.654Z,12.39
2019-03-24T12:04:05.641Z,12.57
2019-03-24T12:05:05.633Z,12.71
2019-03-24T12:06:13.855Z,12.79
2019-03-24T12:07:06.641Z,12.29
2019-03-24T12:08:05.617Z,12.24
2019-03-24T12:09:05.593Z,12.63
2019-03-24T12:10:05.578Z,12.67
2019-03-24T12:11:05.575Z,12.69
2019-03-24T12:12:05.614Z,12.81
2019-03-24T12:13:05.544Z,12.70
2019-03-24T12:14:05.529Z,12.38
2019-03-24T12:15:05.615Z,12.57
2019-03-24T12:16:05.543Z,12.56
2019-03-24T12:17:05.497Z,12.60
2019-03-24T12:18:05.503Z,12.41
2019-03-24T12:19:05.494Z,12.20
2019-03-24T12:20:05.462Z,11.93
2019-03-24T12:21:05.459Z,12.04
2019-03-24T12:22:05.441Z,12.38
2019-03-24T12:23:05.460Z,12.60
2019-03-24T12:24:05.432Z,12.46
2019-03-24T12:25:05.411Z,12.59
2019-03-24T12:26:05.409Z,12.74
2019-03-24T12:27:05.382Z,12.41
2019-03-24T12:28:05.409Z,12.19
2019-03-24T12:29:05.363Z,12.42
2019-03-24T12:30:05.350Z,12.59
2019-03-24T12:31:05.370Z,12.70
2019-03-24T12:32:05.334Z,12.78
2019-03-24T12:33:05.317Z,12.77
2019-03-24T12:34:05.319Z,12.69
2019-03-24T12:35:05.307Z,12.82
2019-03-24T12:36:05.327Z,12.70
2019-03-24T12:37:05.277Z,12.82
2019-03-24T12:38:05.259Z,12.46
2019-03-24T12:39:05.247Z,11.77
2019-03-24T12:40:05.252Z,11.78
2019-03-24T12:41:05.256Z,11.87
2019-03-24T12:42:05.246Z,12.12
2019-03-24T12:43:05.237Z,11.93
2019-03-24T12:44:05.209Z,11.83
2019-03-24T12:45:05.181Z,11.83
2019-03-24T12:46:05.230Z,11.97
2019-03-24T12:47:05.162Z,11.99
2019-03-24T12:48:05.152Z,11.89
2019-03-24T12:49:05.165Z,11.96
2019-03-24T12:50:09.348Z,12.09
2019-03-24T12:51:05.116Z,12.02
2019-03-24T12:52:05.121Z,12.15
2019-03-24T12:53:05.091Z,12.24
2019-03-24T12:54:05.102Z,12.42
2019-03-24T12:55:05.064Z,12.31
2019-03-24T12:56:05.088Z,12.06
2019-03-24T12:57:05.059Z,11.90
2019-03-24T12:58:05.031Z,12.15
2019-03-24T12:59:05.031Z,12.12
2019-03-24T13:00:05.029Z,12.05
2019-03-24T13:01:05.030Z,12.15
2019-03-24T13:02:05.017Z,12.09
2019-03-24T13:03:04.993Z,12.23
2019-03-24T13:04:04.970Z,11.71
2019-03-24T13:05:05.034Z,11.36
2019-03-24T13:06:04.956Z,11.44
2019-03-24T13:07:04.939Z,11.54
2019-03-24T13:08:05.345Z,11.75
2019-03-24T13:09:04.911Z,11.74
2019-03-24T13:10:04.903Z,12.08
2019-03-24T13:11:04.931Z,12.13